sensor_id;sensor_type;location;lat;lon;timestamp;temperature;humidity
17007;DHT22;8620;51.168;4.154;2023-03-01T07:35:03;2.10;99.90
17007;DHT22;8620;51.168;4.154;2023-03-01T07:37:35;2.00;99.90
17007;DHT22;8620;51.168;4.154;2023-03-01T07:40:07;2.20;99.90
17007;DHT22;8620;51.168;4.154;2023-03-01T07:42:42;2.20;99.90
17007;DHT22;8620;51.168;4.154;2023-03-01T07:45:13;2.00;99.90
17007;DHT22;8620;51.168;4.154;2023-03-01T07:47:48;2.00;99.90
17007;DHT22;8620;51.168;4.154;2023-03-01T07:50:19;2.20;99.90
17007;DHT22;8620;51.168;4.154;2023-03-01T07:52:49;2.30;99.90
17007;DHT22;8620;51.168;4.154;2023-03-01T07:55:26;2.70;99.90
17007;DHT22;8620;51.168;4.154;2023-03-01T07:58:06;2.60;99.90
17007;DHT22;8620;51.168;4.154;2023-03-01T08:00:46;2.50;99.90
17007;DHT22;8620;51.168;4.154;2023-03-01T08:03:25;2.40;99.90
17007;DHT22;8620;51.168;4.154;2023-03-01T08:06:00;2.50;99.90
17007;DHT22;8620;51.168;4.154;2023-03-01T08:09:10;2.60;99.90
17007;DHT22;8620;51.168;4.154;2023-03-01T08:12:54;2.80;99.90
17007;DHT22;8620;51.168;4.154;2023-03-01T08:16:04;3.30;99.90
17007;DHT22;8620;51.168;4.154;2023-03-01T08:18:49;3.60;99.90
17007;DHT22;8620;51.168;4.154;2023-03-01T08:21:44;3.80;99.90
17007;DHT22;8620;51.168;4.154;2023-03-01T08:24:28;4.00;99.90
17007;DHT22;8620;51.168;4.154;2023-03-01T08:27:18;4.10;99.90
17007;DHT22;8620;51.168;4.154;2023-03-01T08:30:02;4.70;99.90
17007;DHT22;8620;51.168;4.154;2023-03-01T08:32:49;4.90;99.90
17007;DHT22;8620;51.168;4.154;2023-03-01T08:35:36;5.30;99.90
17007;DHT22;8620;51.168;4.154;2023-03-01T08:38:04;5.20;99.90
17007;DHT22;8620;51.168;4.154;2023-03-01T08:40:39;5.10;99.90
17007;DHT22;8620;51.168;4.154;2023-03-01T08:43:05;5.40;99.90
17007;DHT22;8620;51.168;4.154;2023-03-01T08:45:41;5.90;99.90
17007;DHT22;8620;51.168;4.154;2023-03-01T08:48:42;5.50;99.90
17007;DHT22;8620;51.168;4.154;2023-03-01T08:51:49;5.60;99.90
17007;DHT22;8620;51.168;4.154;2023-03-01T08:55:02;6.10;99.90
17007;DHT22;8620;51.168;4.154;2023-03-01T08:58:09;6.80;99.90
17007;DHT22;8620;51.168;4.154;2023-03-01T09:01:09;6.10;99.90
17007;DHT22;8620;51.168;4.154;2023-03-01T09:03:57;6.60;99.90
17007;DHT22;8620;51.168;4.154;2023-03-01T09:06:32;6.70;99.90
17007;DHT22;8620;51.168;4.154;2023-03-01T09:08:59;6.10;99.90
17007;DHT22;8620;51.168;4.154;2023-03-01T09:12:06;5.60;99.90
17007;DHT22;8620;51.168;4.154;2023-03-01T09:14:35;5.80;99.90
17007;DHT22;8620;51.168;4.154;2023-03-01T09:17:09;6.30;99.90
17007;DHT22;8620;51.168;4.154;2023-03-01T09:19:35;6.00;99.90
17007;DHT22;8620;51.168;4.154;2023-03-01T09:25:26;5.50;99.90
17007;DHT22;8620;51.168;4.154;2023-03-01T09:28:27;5.80;99.90
17007;DHT22;8620;51.168;4.154;2023-03-01T09:31:10;5.30;99.90
17007;DHT22;8620;51.168;4.154;2023-03-01T09:33:53;6.10;99.90
17007;DHT22;8620;51.168;4.154;2023-03-01T09:36:52;6.80;99.90
17007;DHT22;8620;51.168;4.154;2023-03-01T09:40:34;6.60;99.90
17007;DHT22;8620;51.168;4.154;2023-03-01T09:46:25;6.90;99.90
17007;DHT22;8620;51.168;4.154;2023-03-01T09:49:43;7.10;99.90
17007;DHT22;8620;51.168;4.154;2023-03-01T09:52:43;6.90;99.90
17007;DHT22;8620;51.168;4.154;2023-03-01T09:55:59;6.40;99.90
17007;DHT22;8620;51.168;4.154;2023-03-01T09:59:23;6.40;99.90
17007;DHT22;8620;51.168;4.154;2023-03-01T10:02:26;6.60;99.90
17007;DHT22;8620;51.168;4.154;2023-03-01T10:05:14;6.00;99.90
17007;DHT22;8620;51.168;4.154;2023-03-01T10:08:37;6.40;99.90
17007;DHT22;8620;51.168;4.154;2023-03-01T10:10:55;6.90;99.90
17007;DHT22;8620;51.168;4.154;2023-03-01T10:13:46;7.60;99.90
17007;DHT22;8620;51.168;4.154;2023-03-01T10:16:34;7.90;99.90
17007;DHT22;8620;51.168;4.154;2023-03-01T10:19:21;7.80;99.90
17007;DHT22;8620;51.168;4.154;2023-03-01T10:35:34;6.60;99.90
17007;DHT22;8620;51.168;4.154;2023-03-01T10:38:11;7.30;99.90
17007;DHT22;8620;51.168;4.154;2023-03-01T10:41:09;7.50;99.90
17007;DHT22;8620;51.168;4.154;2023-03-01T10:44:34;7.60;99.90
17007;DHT22;8620;51.168;4.154;2023-03-01T10:51:17;7.70;99.90
17007;DHT22;8620;51.168;4.154;2023-03-01T10:53:51;8.10;99.90
17007;DHT22;8620;51.168;4.154;2023-03-01T10:56:17;7.50;99.90
17007;DHT22;8620;51.168;4.154;2023-03-01T10:59:24;7.00;99.90
17007;DHT22;8620;51.168;4.154;2023-03-01T11:02:25;7.30;99.90
17007;DHT22;8620;51.168;4.154;2023-03-01T11:07:48;7.20;99.90
17007;DHT22;8620;51.168;4.154;2023-03-01T11:10:34;7.30;99.90
17007;DHT22;8620;51.168;4.154;2023-03-01T11:13:18;7.30;99.90
17007;DHT22;8620;51.168;4.154;2023-03-01T11:16:06;7.00;99.90
17007;DHT22;8620;51.168;4.154;2023-03-01T11:18:58;7.50;99.90
17007;DHT22;8620;51.168;4.154;2023-03-01T11:21:47;8.40;99.90
17007;DHT22;8620;51.168;4.154;2023-03-01T11:24:47;8.60;99.90
17007;DHT22;8620;51.168;4.154;2023-03-01T11:27:36;8.60;99.90
17007;DHT22;8620;51.168;4.154;2023-03-01T11:30:20;8.80;99.90
17007;DHT22;8620;51.168;4.154;2023-03-01T11:33:33;9.10;99.90
17007;DHT22;8620;51.168;4.154;2023-03-01T11:50:06;8.20;99.90
17007;DHT22;8620;51.168;4.154;2023-03-01T11:56:57;8.60;99.90
17007;DHT22;8620;51.168;4.154;2023-03-01T12:06:55;9.50;99.90
17007;DHT22;8620;51.168;4.154;2023-03-01T12:28:49;8.50;99.90
17007;DHT22;8620;51.168;4.154;2023-03-01T12:35:03;8.40;99.90
17007;DHT22;8620;51.168;4.154;2023-03-01T12:56:09;8.60;99.90
17007;DHT22;8620;51.168;4.154;2023-03-01T12:59:14;8.90;99.90
17007;DHT22;8620;51.168;4.154;2023-03-01T13:02:35;8.80;99.90
17007;DHT22;8620;51.168;4.154;2023-03-01T13:15:39;9.20;99.90
17007;DHT22;8620;51.168;4.154;2023-03-01T13:21:09;8.70;99.90
17007;DHT22;8620;51.168;4.154;2023-03-01T13:36:08;8.20;99.90
17007;DHT22;8620;51.168;4.154;2023-03-01T13:39:01;8.00;99.90
17007;DHT22;8620;51.168;4.154;2023-03-01T13:44:33;8.00;99.90
17007;DHT22;8620;51.168;4.154;2023-03-01T13:47:32;8.20;99.90
17007;DHT22;8620;51.168;4.154;2023-03-01T13:50:30;8.10;99.90
17007;DHT22;8620;51.168;4.154;2023-03-01T13:53:18;8.00;99.90
17007;DHT22;8620;51.168;4.154;2023-03-01T13:55:52;7.90;99.90
17007;DHT22;8620;51.168;4.154;2023-03-01T13:58:44;8.20;99.90
17007;DHT22;8620;51.168;4.154;2023-03-01T14:01:33;8.30;99.90
17007;DHT22;8620;51.168;4.154;2023-03-01T14:04:43;8.20;99.90
17007;DHT22;8620;51.168;4.154;2023-03-01T14:07:17;8.10;99.90
17007;DHT22;8620;51.168;4.154;2023-03-01T14:11:00;7.80;99.90
17007;DHT22;8620;51.168;4.154;2023-03-01T14:14:10;7.80;99.90
17007;DHT22;8620;51.168;4.154;2023-03-01T14:20:28;7.70;99.90
17007;DHT22;8620;51.168;4.154;2023-03-01T14:23:33;7.40;99.90
17007;DHT22;8620;51.168;4.154;2023-03-01T14:26:36;7.50;99.90
17007;DHT22;8620;51.168;4.154;2023-03-01T14:30:02;7.70;99.90
17007;DHT22;8620;51.168;4.154;2023-03-01T14:36:11;7.50;99.90
17007;DHT22;8620;51.168;4.154;2023-03-01T14:38:46;7.60;99.90
17007;DHT22;8620;51.168;4.154;2023-03-01T14:41:32;7.70;99.90
17007;DHT22;8620;51.168;4.154;2023-03-01T14:44:28;7.80;99.90
17007;DHT22;8620;51.168;4.154;2023-03-01T14:47:16;7.90;99.90
17007;DHT22;8620;51.168;4.154;2023-03-01T14:50:00;8.10;99.90
17007;DHT22;8620;51.168;4.154;2023-03-01T14:52:41;8.20;99.90
17007;DHT22;8620;51.168;4.154;2023-03-01T14:55:48;7.80;99.90
17007;DHT22;8620;51.168;4.154;2023-03-01T14:58:32;7.70;99.90
17007;DHT22;8620;51.168;4.154;2023-03-01T15:01:21;7.90;99.90
17007;DHT22;8620;51.168;4.154;2023-03-01T15:04:04;8.00;99.90
17007;DHT22;8620;51.168;4.154;2023-03-01T15:06:33;8.00;99.90
17007;DHT22;8620;51.168;4.154;2023-03-01T15:09:23;8.00;99.90
17007;DHT22;8620;51.168;4.154;2023-03-01T15:12:25;7.90;99.90
17007;DHT22;8620;51.168;4.154;2023-03-01T15:15:31;7.70;99.90
17007;DHT22;8620;51.168;4.154;2023-03-01T15:22:22;7.90;99.90
17007;DHT22;8620;51.168;4.154;2023-03-01T15:25:03;7.70;99.90
17007;DHT22;8620;51.168;4.154;2023-03-01T15:27:55;7.70;99.90
17007;DHT22;8620;51.168;4.154;2023-03-01T15:30:38;7.70;99.90
17007;DHT22;8620;51.168;4.154;2023-03-01T15:33:32;7.60;99.90
17007;DHT22;8620;51.168;4.154;2023-03-01T15:36:36;7.60;99.90
17007;DHT22;8620;51.168;4.154;2023-03-01T15:39:42;7.50;99.90
17007;DHT22;8620;51.168;4.154;2023-03-01T15:42:36;7.40;99.90
17007;DHT22;8620;51.168;4.154;2023-03-01T15:48:19;7.70;99.90
17007;DHT22;8620;51.168;4.154;2023-03-01T15:50:57;7.60;99.90
17007;DHT22;8620;51.168;4.154;2023-03-01T15:53:51;7.60;99.90
17007;DHT22;8620;51.168;4.154;2023-03-01T15:56:24;7.50;99.90
17007;DHT22;8620;51.168;4.154;2023-03-01T15:58:50;7.60;99.90
17007;DHT22;8620;51.168;4.154;2023-03-01T16:01:19;7.50;99.90
17007;DHT22;8620;51.168;4.154;2023-03-01T16:04:19;7.50;99.90
17007;DHT22;8620;51.168;4.154;2023-03-01T16:07:08;7.30;99.90
17007;DHT22;8620;51.168;4.154;2023-03-01T16:09:37;7.30;99.90
17007;DHT22;8620;51.168;4.154;2023-03-01T16:12:03;7.40;99.90
17007;DHT22;8620;51.168;4.154;2023-03-01T16:14:44;7.50;99.90
17007;DHT22;8620;51.168;4.154;2023-03-01T16:17:10;7.30;99.90
17007;DHT22;8620;51.168;4.154;2023-03-01T16:19:39;7.20;99.90
17007;DHT22;8620;51.168;4.154;2023-03-01T16:28:42;7.20;99.90
17007;DHT22;8620;51.168;4.154;2023-03-01T16:31:54;7.20;99.90
17007;DHT22;8620;51.168;4.154;2023-03-01T16:39:20;7.20;99.90
17007;DHT22;8620;51.168;4.154;2023-03-01T16:42:09;7.10;99.90
17007;DHT22;8620;51.168;4.154;2023-03-01T16:45:03;6.90;99.90
17007;DHT22;8620;51.168;4.154;2023-03-01T16:48:54;7.00;99.90
17007;DHT22;8620;51.168;4.154;2023-03-01T16:52:26;7.00;99.90
17007;DHT22;8620;51.168;4.154;2023-03-01T16:55:23;6.90;99.90
17007;DHT22;8620;51.168;4.154;2023-03-01T16:57:51;7.00;99.90
17007;DHT22;8620;51.168;4.154;2023-03-01T17:00:38;7.10;99.90
17007;DHT22;8620;51.168;4.154;2023-03-01T17:03:24;7.00;99.90
17007;DHT22;8620;51.168;4.154;2023-03-01T17:06:35;6.90;99.90
17007;DHT22;8620;51.168;4.154;2023-03-01T17:09:56;6.90;99.90
17007;DHT22;8620;51.168;4.154;2023-03-01T17:12:47;6.70;99.90
17007;DHT22;8620;51.168;4.154;2023-03-01T17:15:20;6.60;99.90
17007;DHT22;8620;51.168;4.154;2023-03-01T17:18:07;6.70;99.90
17007;DHT22;8620;51.168;4.154;2023-03-01T17:21:03;6.50;99.90
17007;DHT22;8620;51.168;4.154;2023-03-01T17:24:27;6.50;99.90
17007;DHT22;8620;51.168;4.154;2023-03-01T17:30:15;6.40;99.90
17007;DHT22;8620;51.168;4.154;2023-03-01T17:36:52;6.30;99.90
17007;DHT22;8620;51.168;4.154;2023-03-01T17:40:03;6.40;99.90
17007;DHT22;8620;51.168;4.154;2023-03-01T17:53:08;6.10;99.90
17007;DHT22;8620;51.168;4.154;2023-03-01T17:56:18;6.00;99.90
17007;DHT22;8620;51.168;4.154;2023-03-01T17:59:27;6.30;99.90
17007;DHT22;8620;51.168;4.154;2023-03-01T18:05:17;6.10;99.90
17007;DHT22;8620;51.168;4.154;2023-03-01T18:08:15;6.20;99.90
17007;DHT22;8620;51.168;4.154;2023-03-01T18:11:13;6.20;99.90
17007;DHT22;8620;51.168;4.154;2023-03-01T18:14:21;6.10;99.90
17007;DHT22;8620;51.168;4.154;2023-03-01T18:17:07;6.00;99.90
17007;DHT22;8620;51.168;4.154;2023-03-01T18:20:05;6.10;99.90
17007;DHT22;8620;51.168;4.154;2023-03-01T18:22:48;6.10;99.90
17007;DHT22;8620;51.168;4.154;2023-03-01T18:26:07;5.90;99.90
17007;DHT22;8620;51.168;4.154;2023-03-01T18:29:38;5.90;99.90
17007;DHT22;8620;51.168;4.154;2023-03-01T18:32:06;5.80;99.90
17007;DHT22;8620;51.168;4.154;2023-03-01T18:38:03;5.80;99.90
17007;DHT22;8620;51.168;4.154;2023-03-01T18:40:47;5.80;99.90
17007;DHT22;8620;51.168;4.154;2023-03-01T18:43:27;5.70;99.90
17007;DHT22;8620;51.168;4.154;2023-03-01T18:50:13;5.40;99.90
17007;DHT22;8620;51.168;4.154;2023-03-01T18:53:14;5.50;99.90
17007;DHT22;8620;51.168;4.154;2023-03-01T18:59:19;5.70;99.90
17007;DHT22;8620;51.168;4.154;2023-03-01T19:02:03;5.50;99.90
17007;DHT22;8620;51.168;4.154;2023-03-01T19:07:59;5.40;99.90
17007;DHT22;8620;51.168;4.154;2023-03-01T19:11:21;5.30;99.90
17007;DHT22;8620;51.168;4.154;2023-03-01T19:17:30;5.30;99.90
17007;DHT22;8620;51.168;4.154;2023-03-01T19:20:19;5.30;99.90
17007;DHT22;8620;51.168;4.154;2023-03-01T19:27:02;5.50;99.90
17007;DHT22;8620;51.168;4.154;2023-03-01T19:29:54;5.50;99.90
17007;DHT22;8620;51.168;4.154;2023-03-01T19:32:40;5.20;99.90
17007;DHT22;8620;51.168;4.154;2023-03-01T19:35:41;5.00;99.90
17007;DHT22;8620;51.168;4.154;2023-03-01T19:38:26;5.10;99.90
17007;DHT22;8620;51.168;4.154;2023-03-01T19:41:44;5.10;99.90
17007;DHT22;8620;51.168;4.154;2023-03-01T19:45:07;5.10;99.90
17007;DHT22;8620;51.168;4.154;2023-03-01T19:48:14;4.90;99.90
17007;DHT22;8620;51.168;4.154;2023-03-01T19:51:16;5.00;99.90
17007;DHT22;8620;51.168;4.154;2023-03-01T19:57:32;5.20;99.90
17007;DHT22;8620;51.168;4.154;2023-03-01T20:00:39;5.10;99.90
17007;DHT22;8620;51.168;4.154;2023-03-01T20:04:00;5.10;99.90
17007;DHT22;8620;51.168;4.154;2023-03-01T20:10:21;4.50;99.90
17007;DHT22;8620;51.168;4.154;2023-03-01T20:13:31;4.60;99.90
17007;DHT22;8620;51.168;4.154;2023-03-01T20:19:44;4.60;99.90
17007;DHT22;8620;51.168;4.154;2023-03-01T20:29:08;4.60;99.90
17007;DHT22;8620;51.168;4.154;2023-03-01T20:32:06;4.70;99.90
17007;DHT22;8620;51.168;4.154;2023-03-01T20:44:36;4.80;99.90
17007;DHT22;8620;51.168;4.154;2023-03-01T20:47:42;4.80;99.90
17007;DHT22;8620;51.168;4.154;2023-03-01T20:50:46;4.70;99.90
17007;DHT22;8620;51.168;4.154;2023-03-01T20:54:32;4.70;99.90
